sensor_id;sensor_type;location;lat;lon;timestamp;P1;durP1;ratioP1;P2;durP2;ratioP2
15814;SDS011;8008;50.024;8.172;2023-07-31T03:01:22;5.85;;;2.30;;
15814;SDS011;8008;50.024;8.172;2023-07-31T03:03:51;6.07;;;2.42;;
15814;SDS011;8008;50.024;8.172;2023-07-31T03:06:18;5.43;;;2.42;;
15814;SDS011;8008;50.024;8.172;2023-07-31T03:08:46;6.13;;;2.67;;
15814;SDS011;8008;50.024;8.172;2023-07-31T03:11:14;5.63;;;2.50;;
15814;SDS011;8008;50.024;8.172;2023-07-31T03:13:42;4.05;;;2.65;;
15814;SDS011;8008;50.024;8.172;2023-07-31T03:16:10;7.03;;;2.53;;
15814;SDS011;8008;50.024;8.172;2023-07-31T03:18:40;3.90;;;2.20;;
15814;SDS011;8008;50.024;8.172;2023-07-31T03:21:07;5.35;;;2.35;;
15814;SDS011;8008;50.024;8.172;2023-07-31T03:23:35;5.30;;;2.33;;
15814;SDS011;8008;50.024;8.172;2023-07-31T03:26:07;3.08;;;2.13;;
15814;SDS011;8008;50.024;8.172;2023-07-31T03:28:35;4.47;;;2.47;;
15814;SDS011;8008;50.024;8.172;2023-07-31T03:31:03;4.88;;;2.53;;
15814;SDS011;8008;50.024;8.172;2023-07-31T03:33:32;4.88;;;2.53;;
15814;SDS011;8008;50.024;8.172;2023-07-31T03:36:01;6.57;;;2.40;;
15814;SDS011;8008;50.024;8.172;2023-07-31T03:38:30;5.43;;;2.40;;
15814;SDS011;8008;50.024;8.172;2023-07-31T03:40:57;7.55;;;2.60;;
15814;SDS011;8008;50.024;8.172;2023-07-31T03:43:25;4.38;;;2.55;;
15814;SDS011;8008;50.024;8.172;2023-07-31T03:45:53;7.57;;;2.50;;
15814;SDS011;8008;50.024;8.172;2023-07-31T03:48:23;4.93;;;2.58;;
15814;SDS011;8008;50.024;8.172;2023-07-31T03:50:51;3.05;;;2.17;;
15814;SDS011;8008;50.024;8.172;2023-07-31T03:53:22;3.40;;;2.33;;
15814;SDS011;8008;50.024;8.172;2023-07-31T03:55:50;4.85;;;2.17;;
15814;SDS011;8008;50.024;8.172;2023-07-31T03:58:18;5.00;;;2.40;;
15814;SDS011;8008;50.024;8.172;2023-07-31T04:00:46;6.32;;;2.45;;
15814;SDS011;8008;50.024;8.172;2023-07-31T04:03:14;4.82;;;2.30;;
15814;SDS011;8008;50.024;8.172;2023-07-31T04:05:42;4.15;;;2.33;;
15814;SDS011;8008;50.024;8.172;2023-07-31T04:08:10;3.85;;;2.25;;
15814;SDS011;8008;50.024;8.172;2023-07-31T04:10:39;5.38;;;2.50;;
15814;SDS011;8008;50.024;8.172;2023-07-31T04:13:07;4.50;;;2.38;;
15814;SDS011;8008;50.024;8.172;2023-07-31T04:15:35;3.88;;;2.30;;
15814;SDS011;8008;50.024;8.172;2023-07-31T04:18:04;2.60;;;2.28;;
15814;SDS011;8008;50.024;8.172;2023-07-31T04:20:32;6.18;;;2.40;;
15814;SDS011;8008;50.024;8.172;2023-07-31T04:22:59;3.42;;;2.30;;
15814;SDS011;8008;50.024;8.172;2023-07-31T04:25:27;5.10;;;2.50;;
15814;SDS011;8008;50.024;8.172;2023-07-31T04:27:57;4.95;;;2.53;;
15814;SDS011;8008;50.024;8.172;2023-07-31T04:30:25;6.05;;;2.50;;
15814;SDS011;8008;50.024;8.172;2023-07-31T04:32:52;5.03;;;2.40;;
15814;SDS011;8008;50.024;8.172;2023-07-31T04:35:21;3.38;;;2.40;;
15814;SDS011;8008;50.024;8.172;2023-07-31T04:37:48;5.53;;;2.65;;
15814;SDS011;8008;50.024;8.172;2023-07-31T04:40:17;5.57;;;2.67;;
15814;SDS011;8008;50.024;8.172;2023-07-31T04:42:45;6.05;;;2.55;;
15814;SDS011;8008;50.024;8.172;2023-07-31T04:45:14;6.80;;;2.45;;
15814;SDS011;8008;50.024;8.172;2023-07-31T04:47:42;4.25;;;2.25;;
15814;SDS011;8008;50.024;8.172;2023-07-31T04:50:10;6.68;;;2.60;;
15814;SDS011;8008;50.024;8.172;2023-07-31T04:52:38;4.35;;;2.58;;
15814;SDS011;8008;50.024;8.172;2023-07-31T04:55:06;6.38;;;2.55;;
15814;SDS011;8008;50.024;8.172;2023-07-31T04:57:35;4.30;;;2.58;;
15814;SDS011;8008;50.024;8.172;2023-07-31T05:00:03;5.97;;;2.50;;
15814;SDS011;8008;50.024;8.172;2023-07-31T05:02:33;4.78;;;2.70;;
15814;SDS011;8008;50.024;8.172;2023-07-31T05:05:01;5.95;;;2.65;;
15814;SDS011;8008;50.024;8.172;2023-07-31T05:07:29;4.82;;;2.30;;
15814;SDS011;8008;50.024;8.172;2023-07-31T05:09:57;4.82;;;2.30;;
15814;SDS011;8008;50.024;8.172;2023-07-31T05:12:25;3.15;;;2.20;;
15814;SDS011;8008;50.024;8.172;2023-07-31T05:14:52;5.05;;;2.45;;
15814;SDS011;8008;50.024;8.172;2023-07-31T05:17:20;4.47;;;2.42;;
15814;SDS011;8008;50.024;8.172;2023-07-31T05:19:50;5.63;;;2.42;;
15814;SDS011;8008;50.024;8.172;2023-07-31T05:22:18;4.20;;;2.65;;
15814;SDS011;8008;50.024;8.172;2023-07-31T05:24:46;4.90;;;2.50;;
15814;SDS011;8008;50.024;8.172;2023-07-31T05:27:14;6.07;;;2.67;;
15814;SDS011;8008;50.024;8.172;2023-07-31T05:29:45;5.30;;;2.80;;
15814;SDS011;8008;50.024;8.172;2023-07-31T05:32:13;4.15;;;2.50;;
15814;SDS011;8008;50.024;8.172;2023-07-31T05:34:41;3.22;;;2.30;;
15814;SDS011;8008;50.024;8.172;2023-07-31T05:37:10;4.57;;;2.60;;
15814;SDS011;8008;50.024;8.172;2023-07-31T05:39:38;5.20;;;2.60;;
15814;SDS011;8008;50.024;8.172;2023-07-31T05:42:06;3.50;;;2.40;;
15814;SDS011;8008;50.024;8.172;2023-07-31T05:44:34;5.35;;;2.45;;
15814;SDS011;8008;50.024;8.172;2023-07-31T05:47:03;4.07;;;2.55;;
15814;SDS011;8008;50.024;8.172;2023-07-31T05:49:33;6.72;;;2.40;;
15814;SDS011;8008;50.024;8.172;2023-07-31T05:52:02;4.93;;;2.50;;
15814;SDS011;8008;50.024;8.172;2023-07-31T05:54:31;4.95;;;2.63;;
15814;SDS011;8008;50.024;8.172;2023-07-31T05:56:59;7.50;;;2.70;;
15814;SDS011;8008;50.024;8.172;2023-07-31T05:59:27;3.22;;;2.50;;
15814;SDS011;8008;50.024;8.172;2023-07-31T06:01:57;6.70;;;2.45;;
15814;SDS011;8008;50.024;8.172;2023-07-31T06:04:25;7.50;;;2.70;;
15814;SDS011;8008;50.024;8.172;2023-07-31T06:06:53;5.35;;;2.50;;
15814;SDS011;8008;50.024;8.172;2023-07-31T06:09:21;5.68;;;2.70;;
15814;SDS011;8008;50.024;8.172;2023-07-31T06:11:50;7.53;;;3.00;;
15814;SDS011;8008;50.024;8.172;2023-07-31T06:14:19;6.75;;;2.60;;
15814;SDS011;8008;50.024;8.172;2023-07-31T06:16:47;7.50;;;2.60;;
15814;SDS011;8008;50.024;8.172;2023-07-31T06:19:14;6.65;;;2.78;;
15814;SDS011;8008;50.024;8.172;2023-07-31T06:21:42;3.50;;;2.45;;
15814;SDS011;8008;50.024;8.172;2023-07-31T06:24:10;5.28;;;2.70;;
15814;SDS011;8008;50.024;8.172;2023-07-31T06:26:39;5.97;;;2.55;;
15814;SDS011;8008;50.024;8.172;2023-07-31T06:29:09;5.07;;;2.53;;
15814;SDS011;8008;50.024;8.172;2023-07-31T06:31:37;6.82;;;2.63;;
15814;SDS011;8008;50.024;8.172;2023-07-31T06:34:05;7.88;;;2.67;;
15814;SDS011;8008;50.024;8.172;2023-07-31T06:36:33;4.13;;;2.50;;
15814;SDS011;8008;50.024;8.172;2023-07-31T06:39:01;6.57;;;2.72;;
15814;SDS011;8008;50.024;8.172;2023-07-31T06:41:30;4.97;;;2.65;;
15814;SDS011;8008;50.024;8.172;2023-07-31T06:43:58;6.60;;;2.80;;
15814;SDS011;8008;50.024;8.172;2023-07-31T06:46:28;3.15;;;2.30;;
15814;SDS011;8008;50.024;8.172;2023-07-31T06:48:56;5.38;;;2.65;;
15814;SDS011;8008;50.024;8.172;2023-07-31T06:51:23;6.03;;;2.80;;
15814;SDS011;8008;50.024;8.172;2023-07-31T06:53:51;6.93;;;3.00;;
15814;SDS011;8008;50.024;8.172;2023-07-31T06:56:20;6.65;;;2.50;;
15814;SDS011;8008;50.024;8.172;2023-07-31T06:58:48;6.35;;;2.70;;
15814;SDS011;8008;50.024;8.172;2023-07-31T07:01:16;7.53;;;2.70;;
15814;SDS011;8008;50.024;8.172;2023-07-31T07:03:46;4.78;;;2.60;;
15814;SDS011;8008;50.024;8.172;2023-07-31T07:06:17;6.30;;;2.78;;
15814;SDS011;8008;50.024;8.172;2023-07-31T07:08:45;6.82;;;2.70;;
15814;SDS011;8008;50.024;8.172;2023-07-31T07:11:13;5.28;;;2.80;;
15814;SDS011;8008;50.024;8.172;2023-07-31T07:13:40;6.00;;;2.70;;
15814;SDS011;8008;50.024;8.172;2023-07-31T07:16:08;5.10;;;2.60;;
15814;SDS011;8008;50.024;8.172;2023-07-31T07:18:37;7.80;;;2.95;;
15814;SDS011;8008;50.024;8.172;2023-07-31T07:21:20;5.28;;;2.55;;
15814;SDS011;8008;50.024;8.172;2023-07-31T07:23:49;3.92;;;2.60;;
15814;SDS011;8008;50.024;8.172;2023-07-31T07:26:17;4.47;;;2.53;;
15814;SDS011;8008;50.024;8.172;2023-07-31T07:28:44;5.70;;;2.70;;
15814;SDS011;8008;50.024;8.172;2023-07-31T07:31:12;5.25;;;2.70;;
15814;SDS011;8008;50.024;8.172;2023-07-31T07:33:40;4.15;;;2.65;;
15814;SDS011;8008;50.024;8.172;2023-07-31T07:36:08;5.30;;;2.78;;
15814;SDS011;8008;50.024;8.172;2023-07-31T07:38:38;5.47;;;2.60;;
15814;SDS011;8008;50.024;8.172;2023-07-31T07:41:05;5.68;;;2.70;;
15814;SDS011;8008;50.024;8.172;2023-07-31T07:43:33;6.97;;;2.75;;
15814;SDS011;8008;50.024;8.172;2023-07-31T07:46:01;4.82;;;2.83;;
15814;SDS011;8008;50.024;8.172;2023-07-31T07:48:29;7.05;;;2.92;;
15814;SDS011;8008;50.024;8.172;2023-07-31T07:50:57;6.60;;;3.10;;
15814;SDS011;8008;50.024;8.172;2023-07-31T07:53:25;4.82;;;2.60;;
15814;SDS011;8008;50.024;8.172;2023-07-31T07:55:55;5.53;;;2.63;;
15814;SDS011;8008;50.024;8.172;2023-07-31T07:58:23;5.18;;;2.53;;
15814;SDS011;8008;50.024;8.172;2023-07-31T08:00:51;4.28;;;2.70;;
15814;SDS011;8008;50.024;8.172;2023-07-31T08:03:19;4.57;;;2.38;;
15814;SDS011;8008;50.024;8.172;2023-07-31T08:05:47;5.13;;;2.53;;
15814;SDS011;8008;50.024;8.172;2023-07-31T08:08:15;4.88;;;2.47;;
15814;SDS011;8008;50.024;8.172;2023-07-31T08:10:43;4.93;;;2.67;;
15814;SDS011;8008;50.024;8.172;2023-07-31T08:13:13;6.07;;;2.75;;
15814;SDS011;8008;50.024;8.172;2023-07-31T08:15:41;6.13;;;2.50;;
15814;SDS011;8008;50.024;8.172;2023-07-31T08:18:09;5.10;;;2.53;;
15814;SDS011;8008;50.024;8.172;2023-07-31T08:20:38;5.43;;;2.53;;
15814;SDS011;8008;50.024;8.172;2023-07-31T08:23:05;4.78;;;2.53;;
15814;SDS011;8008;50.024;8.172;2023-07-31T08:25:34;4.45;;;2.47;;
15814;SDS011;8008;50.024;8.172;2023-07-31T08:28:02;6.85;;;2.70;;
15814;SDS011;8008;50.024;8.172;2023-07-31T08:30:32;4.43;;;2.38;;
15814;SDS011;8008;50.024;8.172;2023-07-31T08:33:00;4.55;;;2.47;;
15814;SDS011;8008;50.024;8.172;2023-07-31T08:35:28;4.75;;;2.60;;
15814;SDS011;8008;50.024;8.172;2023-07-31T08:37:56;5.22;;;2.15;;
15814;SDS011;8008;50.024;8.172;2023-07-31T08:40:24;6.07;;;2.67;;
15814;SDS011;8008;50.024;8.172;2023-07-31T08:42:54;5.45;;;2.60;;
15814;SDS011;8008;50.024;8.172;2023-07-31T08:45:22;6.93;;;2.80;;
15814;SDS011;8008;50.024;8.172;2023-07-31T08:47:52;4.53;;;2.55;;
15814;SDS011;8008;50.024;8.172;2023-07-31T08:50:20;6.05;;;2.72;;
15814;SDS011;8008;50.024;8.172;2023-07-31T08:52:50;5.95;;;2.60;;
15814;SDS011;8008;50.024;8.172;2023-07-31T08:55:20;4.35;;;2.60;;
15814;SDS011;8008;50.024;8.172;2023-07-31T08:57:50;5.15;;;2.60;;
15814;SDS011;8008;50.024;8.172;2023-07-31T09:00:19;4.30;;;2.33;;
15814;SDS011;8008;50.024;8.172;2023-07-31T09:02:54;5.68;;;2.55;;
15814;SDS011;8008;50.024;8.172;2023-07-31T09:05:28;7.28;;;2.70;;
15814;SDS011;8008;50.024;8.172;2023-07-31T09:07:57;5.38;;;2.50;;
15814;SDS011;8008;50.024;8.172;2023-07-31T09:10:25;4.70;;;2.53;;
15814;SDS011;8008;50.024;8.172;2023-07-31T09:12:53;5.25;;;2.38;;
15814;SDS011;8008;50.024;8.172;2023-07-31T09:15:23;5.38;;;2.47;;
15814;SDS011;8008;50.024;8.172;2023-07-31T09:18:04;5.97;;;2.70;;
15814;SDS011;8008;50.024;8.172;2023-07-31T09:20:33;6.38;;;2.85;;
15814;SDS011;8008;50.024;8.172;2023-07-31T09:23:05;4.93;;;2.60;;
15814;SDS011;8008;50.024;8.172;2023-07-31T09:25:35;4.15;;;2.45;;
15814;SDS011;8008;50.024;8.172;2023-07-31T09:28:04;4.85;;;2.35;;
15814;SDS011;8008;50.024;8.172;2023-07-31T09:30:43;4.15;;;2.60;;
15814;SDS011;8008;50.024;8.172;2023-07-31T09:33:14;6.82;;;2.80;;
15814;SDS011;8008;50.024;8.172;2023-07-31T09:35:42;6.10;;;2.60;;
15814;SDS011;8008;50.024;8.172;2023-07-31T09:38:11;4.38;;;2.60;;
15814;SDS011;8008;50.024;8.172;2023-07-31T09:40:40;6.18;;;2.58;;
15814;SDS011;8008;50.024;8.172;2023-07-31T09:43:09;6.22;;;2.70;;
15814;SDS011;8008;50.024;8.172;2023-07-31T09:45:39;4.25;;;2.60;;
15814;SDS011;8008;50.024;8.172;2023-07-31T09:48:08;5.53;;;2.38;;
15814;SDS011;8008;50.024;8.172;2023-07-31T09:50:38;4.82;;;2.67;;
15814;SDS011;8008;50.024;8.172;2023-07-31T09:53:07;5.13;;;2.50;;
15814;SDS011;8008;50.024;8.172;2023-07-31T09:55:36;5.90;;;2.70;;
15814;SDS011;8008;50.024;8.172;2023-07-31T09:58:05;4.10;;;2.50;;
15814;SDS011;8008;50.024;8.172;2023-07-31T10:00:35;3.97;;;2.70;;
15814;SDS011;8008;50.024;8.172;2023-07-31T10:03:04;6.30;;;2.63;;
15814;SDS011;8008;50.024;8.172;2023-07-31T10:05:34;4.70;;;2.50;;
15814;SDS011;8008;50.024;8.172;2023-07-31T10:08:04;6.68;;;2.60;;
15814;SDS011;8008;50.024;8.172;2023-07-31T10:10:33;3.88;;;2.45;;
15814;SDS011;8008;50.024;8.172;2023-07-31T10:13:03;7.63;;;2.90;;
15814;SDS011;8008;50.024;8.172;2023-07-31T10:15:32;5.05;;;2.90;;
15814;SDS011;8008;50.024;8.172;2023-07-31T10:18:00;5.03;;;2.88;;
15814;SDS011;8008;50.024;8.172;2023-07-31T10:20:29;3.75;;;2.58;;
15814;SDS011;8008;50.024;8.172;2023-07-31T10:22:57;4.63;;;2.72;;
15814;SDS011;8008;50.024;8.172;2023-07-31T10:25:27;4.22;;;2.50;;
15814;SDS011;8008;50.024;8.172;2023-07-31T10:27:56;5.03;;;2.60;;
15814;SDS011;8008;50.024;8.172;2023-07-31T10:30:26;4.18;;;2.67;;
15814;SDS011;8008;50.024;8.172;2023-07-31T10:32:56;5.68;;;2.90;;
15814;SDS011;8008;50.024;8.172;2023-07-31T10:35:25;4.72;;;2.78;;
15814;SDS011;8008;50.024;8.172;2023-07-31T10:37:55;3.78;;;2.55;;
15814;SDS011;8008;50.024;8.172;2023-07-31T10:40:37;5.00;;;3.17;;
15814;SDS011;8008;50.024;8.172;2023-07-31T10:43:05;8.40;;;2.95;;
15814;SDS011;8008;50.024;8.172;2023-07-31T10:45:35;5.32;;;2.47;;
15814;SDS011;8008;50.024;8.172;2023-07-31T10:48:04;4.53;;;2.70;;
15814;SDS011;8008;50.024;8.172;2023-07-31T10:50:37;6.05;;;2.60;;
15814;SDS011;8008;50.024;8.172;2023-07-31T10:53:05;4.53;;;2.40;;
15814;SDS011;8008;50.024;8.172;2023-07-31T10:55:38;5.35;;;2.70;;
15814;SDS011;8008;50.024;8.172;2023-07-31T10:58:08;4.00;;;2.70;;
15814;SDS011;8008;50.024;8.172;2023-07-31T11:00:38;5.10;;;2.88;;
15814;SDS011;8008;50.024;8.172;2023-07-31T11:03:07;5.07;;;2.97;;
15814;SDS011;8008;50.024;8.172;2023-07-31T11:05:40;5.38;;;2.97;;
15814;SDS011;8008;50.024;8.172;2023-07-31T11:08:12;6.25;;;3.00;;
15814;SDS011;8008;50.024;8.172;2023-07-31T11:10:43;5.28;;;2.90;;
15814;SDS011;8008;50.024;8.172;2023-07-31T11:13:12;4.85;;;3.03;;
15814;SDS011;8008;50.024;8.172;2023-07-31T11:15:40;5.63;;;3.00;;
15814;SDS011;8008;50.024;8.172;2023-07-31T11:18:08;5.38;;;2.63;;
15814;SDS011;8008;50.024;8.172;2023-07-31T11:20:37;4.28;;;2.70;;
15814;SDS011;8008;50.024;8.172;2023-07-31T11:23:07;5.38;;;2.35;;
15814;SDS011;8008;50.024;8.172;2023-07-31T11:25:37;4.18;;;2.70;;
15814;SDS011;8008;50.024;8.172;2023-07-31T11:28:08;6.43;;;2.58;;
15814;SDS011;8008;50.024;8.172;2023-07-31T11:30:37;4.20;;;2.50;;
15814;SDS011;8008;50.024;8.172;2023-07-31T11:33:06;5.30;;;2.55;;
15814;SDS011;8008;50.024;8.172;2023-07-31T11:35:36;3.80;;;2.60;;
15814;SDS011;8008;50.024;8.172;2023-07-31T11:38:12;4.28;;;2.40;;
15814;SDS011;8008;50.024;8.172;2023-07-31T11:40:47;7.03;;;2.72;;
15814;SDS011;8008;50.024;8.172;2023-07-31T11:43:17;4.07;;;2.63;;
15814;SDS011;8008;50.024;8.172;2023-07-31T11:45:46;5.43;;;2.80;;
15814;SDS011;8008;50.024;8.172;2023-07-31T11:48:19;6.93;;;3.05;;
15814;SDS011;8008;50.024;8.172;2023-07-31T11:50:48;4.70;;;2.70;;
15814;SDS011;8008;50.024;8.172;2023-07-31T11:53:19;4.25;;;2.75;;
15814;SDS011;8008;50.024;8.172;2023-07-31T11:55:51;3.72;;;2.88;;
15814;SDS011;8008;50.024;8.172;2023-07-31T11:58:20;5.53;;;2.75;;
15814;SDS011;8008;50.024;8.172;2023-07-31T12:00:49;8.93;;;3.13;;
15814;SDS011;8008;50.024;8.172;2023-07-31T12:03:18;5.78;;;3.15;;
15814;SDS011;8008;50.024;8.172;2023-07-31T12:05:47;5.38;;;3.10;;
15814;SDS011;8008;50.024;8.172;2023-07-31T12:08:15;4.30;;;3.00;;
15814;SDS011;8008;50.024;8.172;2023-07-31T12:10:43;5.68;;;2.83;;
15814;SDS011;8008;50.024;8.172;2023-07-31T12:13:12;4.55;;;2.80;;
15814;SDS011;8008;50.024;8.172;2023-07-31T12:15:53;4.63;;;2.80;;
15814;SDS011;8008;50.024;8.172;2023-07-31T12:18:22;6.32;;;2.88;;
15814;SDS011;8008;50.024;8.172;2023-07-31T12:20:53;8.90;;;2.90;;
15814;SDS011;8008;50.024;8.172;2023-07-31T12:23:24;2.90;;;2.42;;
15814;SDS011;8008;50.024;8.172;2023-07-31T12:26:01;4.30;;;2.80;;
15814;SDS011;8008;50.024;8.172;2023-07-31T12:28:34;4.80;;;2.80;;
15814;SDS011;8008;50.024;8.172;2023-07-31T12:31:03;4.28;;;2.75;;
15814;SDS011;8008;50.024;8.172;2023-07-31T12:33:32;6.57;;;2.92;;
15814;SDS011;8008;50.024;8.172;2023-07-31T12:36:00;4.60;;;2.70;;
15814;SDS011;8008;50.024;8.172;2023-07-31T12:38:29;5.93;;;2.75;;
15814;SDS011;8008;50.024;8.172;2023-07-31T12:40:57;6.28;;;2.60;;
15814;SDS011;8008;50.024;8.172;2023-07-31T12:43:25;5.05;;;2.75;;
15814;SDS011;8008;50.024;8.172;2023-07-31T12:45:55;4.97;;;2.65;;
15814;SDS011;8008;50.024;8.172;2023-07-31T12:48:23;5.45;;;2.60;;
15814;SDS011;8008;50.024;8.172;2023-07-31T12:50:51;3.75;;;2.70;;
15814;SDS011;8008;50.024;8.172;2023-07-31T12:53:19;3.40;;;2.47;;
15814;SDS011;8008;50.024;8.172;2023-07-31T12:55:47;3.95;;;2.38;;
15814;SDS011;8008;50.024;8.172;2023-07-31T12:58:15;4.57;;;2.30;;
15814;SDS011;8008;50.024;8.172;2023-07-31T13:00:43;4.82;;;2.40;;
15814;SDS011;8008;50.024;8.172;2023-07-31T13:03:12;3.75;;;2.55;;
15814;SDS011;8008;50.024;8.172;2023-07-31T13:05:40;3.47;;;2.10;;
15814;SDS011;8008;50.024;8.172;2023-07-31T13:08:09;6.32;;;2.47;;
15814;SDS011;8008;50.024;8.172;2023-07-31T13:10:38;3.35;;;2.33;;
15814;SDS011;8008;50.024;8.172;2023-07-31T13:13:06;4.32;;;2.60;;
15814;SDS011;8008;50.024;8.172;2023-07-31T13:15:34;4.95;;;2.60;;
15814;SDS011;8008;50.024;8.172;2023-07-31T13:18:02;4.25;;;2.40;;
15814;SDS011;8008;50.024;8.172;2023-07-31T13:20:31;3.15;;;2.20;;
15814;SDS011;8008;50.024;8.172;2023-07-31T13:22:59;2.80;;;2.10;;
15814;SDS011;8008;50.024;8.172;2023-07-31T13:25:27;4.95;;;2.17;;
15814;SDS011;8008;50.024;8.172;2023-07-31T13:27:55;3.42;;;2.10;;
15814;SDS011;8008;50.024;8.172;2023-07-31T13:30:26;5.25;;;2.25;;
15814;SDS011;8008;50.024;8.172;2023-07-31T13:32:54;3.58;;;2.35;;
15814;SDS011;8008;50.024;8.172;2023-07-31T13:35:22;3.38;;;2.25;;
15814;SDS011;8008;50.024;8.172;2023-07-31T13:37:51;3.13;;;1.98;;
15814;SDS011;8008;50.024;8.172;2023-07-31T13:40:19;2.22;;;2.00;;
15814;SDS011;8008;50.024;8.172;2023-07-31T13:42:48;2.95;;;2.20;;
15814;SDS011;8008;50.024;8.172;2023-07-31T13:45:16;3.05;;;1.92;;
15814;SDS011;8008;50.024;8.172;2023-07-31T13:47:44;4.82;;;2.08;;
15814;SDS011;8008;50.024;8.172;2023-07-31T13:50:12;2.97;;;2.20;;
15814;SDS011;8008;50.024;8.172;2023-07-31T13:52:40;3.72;;;2.20;;
15814;SDS011;8008;50.024;8.172;2023-07-31T13:55:09;3.22;;;2.35;;
15814;SDS011;8008;50.024;8.172;2023-07-31T13:57:38;3.88;;;2.10;;
15814;SDS011;8008;50.024;8.172;2023-07-31T14:00:06;4.22;;;2.13;;
15814;SDS011;8008;50.024;8.172;2023-07-31T14:02:35;3.22;;;1.90;;
15814;SDS011;8008;50.024;8.172;2023-07-31T14:05:03;4.32;;;2.00;;
15814;SDS011;8008;50.024;8.172;2023-07-31T14:07:31;3.70;;;2.00;;
15814;SDS011;8008;50.024;8.172;2023-07-31T14:09:59;4.88;;;2.20;;
15814;SDS011;8008;50.024;8.172;2023-07-31T14:12:29;3.38;;;2.35;;
15814;SDS011;8008;50.024;8.172;2023-07-31T14:15:07;4.22;;;2.35;;
15814;SDS011;8008;50.024;8.172;2023-07-31T14:17:36;5.40;;;2.30;;
15814;SDS011;8008;50.024;8.172;2023-07-31T14:20:04;3.65;;;2.33;;
15814;SDS011;8008;50.024;8.172;2023-07-31T14:22:34;6.13;;;2.55;;
15814;SDS011;8008;50.024;8.172;2023-07-31T14:25:02;5.53;;;2.47;;
15814;SDS011;8008;50.024;8.172;2023-07-31T14:27:32;4.30;;;2.30;;
15814;SDS011;8008;50.024;8.172;2023-07-31T14:30:00;3.78;;;2.55;;
15814;SDS011;8008;50.024;8.172;2023-07-31T14:32:28;6.10;;;2.90;;
15814;SDS011;8008;50.024;8.172;2023-07-31T14:34:56;4.18;;;2.75;;
15814;SDS011;8008;50.024;8.172;2023-07-31T14:37:25;3.80;;;2.92;;
15814;SDS011;8008;50.024;8.172;2023-07-31T14:39:54;4.00;;;2.70;;
15814;SDS011;8008;50.024;8.172;2023-07-31T14:42:22;5.95;;;3.10;;
15814;SDS011;8008;50.024;8.172;2023-07-31T14:44:51;3.80;;;2.58;;
15814;SDS011;8008;50.024;8.172;2023-07-31T14:47:19;5.22;;;2.10;;
15814;SDS011;8008;50.024;8.172;2023-07-31T14:49:47;3.30;;;2.10;;
15814;SDS011;8008;50.024;8.172;2023-07-31T14:52:15;3.97;;;1.98;;
15814;SDS011;8008;50.024;8.172;2023-07-31T14:54:43;4.25;;;2.15;;
15814;SDS011;8008;50.024;8.172;2023-07-31T14:57:12;2.40;;;1.98;;
15814;SDS011;8008;50.024;8.172;2023-07-31T14:59:39;2.08;;;1.50;;
15814;SDS011;8008;50.024;8.172;2023-07-31T15:02:09;2.17;;;1.60;;
15814;SDS011;8008;50.024;8.172;2023-07-31T15:04:37;2.05;;;1.40;;
15814;SDS011;8008;50.024;8.172;2023-07-31T15:07:05;2.30;;;1.70;;
15814;SDS011;8008;50.024;8.172;2023-07-31T15:09:33;3.38;;;1.50;;
15814;SDS011;8008;50.024;8.172;2023-07-31T15:12:01;1.73;;;1.35;;
15814;SDS011;8008;50.024;8.172;2023-07-31T15:14:30;2.35;;;1.60;;
15814;SDS011;8008;50.024;8.172;2023-07-31T15:16:58;1.60;;;1.50;;
15814;SDS011;8008;50.024;8.172;2023-07-31T15:19:27;2.95;;;1.60;;
15814;SDS011;8008;50.024;8.172;2023-07-31T15:21:55;1.83;;;1.58;;
15814;SDS011;8008;50.024;8.172;2023-07-31T15:24:23;1.95;;;1.75;;
15814;SDS011;8008;50.024;8.172;2023-07-31T15:26:51;1.73;;;1.55;;
15814;SDS011;8008;50.024;8.172;2023-07-31T15:29:19;1.50;;;1.40;;
15814;SDS011;8008;50.024;8.172;2023-07-31T15:31:47;4.43;;;1.40;;
15814;SDS011;8008;50.024;8.172;2023-07-31T15:34:15;1.50;;;1.40;;
15814;SDS011;8008;50.024;8.172;2023-07-31T15:36:46;1.67;;;1.40;;
15814;SDS011;8008;50.024;8.172;2023-07-31T15:39:16;2.63;;;1.33;;
15814;SDS011;8008;50.024;8.172;2023-07-31T15:41:44;1.15;;;1.13;;
15814;SDS011;8008;50.024;8.172;2023-07-31T15:44:12;3.25;;;1.60;;
15814;SDS011;8008;50.024;8.172;2023-07-31T15:46:40;1.65;;;1.50;;
15814;SDS011;8008;50.024;8.172;2023-07-31T15:49:08;1.45;;;1.35;;
15814;SDS011;8008;50.024;8.172;2023-07-31T15:51:36;2.25;;;1.80;;
15814;SDS011;8008;50.024;8.172;2023-07-31T15:54:05;3.75;;;1.40;;
15814;SDS011;8008;50.024;8.172;2023-07-31T15:56:33;2.45;;;1.42;;
15814;SDS011;8008;50.024;8.172;2023-07-31T15:59:01;4.55;;;1.83;;
15814;SDS011;8008;50.024;8.172;2023-07-31T16:01:29;2.47;;;2.00;;
15814;SDS011;8008;50.024;8.172;2023-07-31T16:03:57;4.80;;;3.00;;
15814;SDS011;8008;50.024;8.172;2023-07-31T16:06:25;3.33;;;2.08;;
15814;SDS011;8008;50.024;8.172;2023-07-31T16:08:53;5.43;;;2.03;;
15814;SDS011;8008;50.024;8.172;2023-07-31T16:11:22;3.08;;;1.90;;
15814;SDS011;8008;50.024;8.172;2023-07-31T16:13:50;4.63;;;2.00;;
15814;SDS011;8008;50.024;8.172;2023-07-31T16:16:18;3.05;;;2.13;;
15814;SDS011;8008;50.024;8.172;2023-07-31T16:18:47;2.08;;;1.80;;
15814;SDS011;8008;50.024;8.172;2023-07-31T16:21:15;3.42;;;2.00;;
15814;SDS011;8008;50.024;8.172;2023-07-31T16:23:43;2.38;;;1.77;;
15814;SDS011;8008;50.024;8.172;2023-07-31T16:26:11;2.53;;;2.00;;
15814;SDS011;8008;50.024;8.172;2023-07-31T16:28:39;2.67;;;1.90;;
15814;SDS011;8008;50.024;8.172;2023-07-31T16:31:07;2.63;;;1.85;;
15814;SDS011;8008;50.024;8.172;2023-07-31T16:33:35;3.45;;;2.13;;
15814;SDS011;8008;50.024;8.172;2023-07-31T16:36:03;4.68;;;2.08;;
15814;SDS011;8008;50.024;8.172;2023-07-31T16:38:31;2.85;;;2.20;;
15814;SDS011;8008;50.024;8.172;2023-07-31T16:40:59;3.45;;;2.33;;
15814;SDS011;8008;50.024;8.172;2023-07-31T16:43:27;3.63;;;2.22;;
15814;SDS011;8008;50.024;8.172;2023-07-31T16:45:57;4.32;;;2.50;;
15814;SDS011;8008;50.024;8.172;2023-07-31T16:48:25;3.17;;;2.30;;
15814;SDS011;8008;50.024;8.172;2023-07-31T16:50:53;2.67;;;2.22;;
15814;SDS011;8008;50.024;8.172;2023-07-31T16:53:21;2.80;;;2.30;;
15814;SDS011;8008;50.024;8.172;2023-07-31T16:55:49;2.97;;;2.42;;
15814;SDS011;8008;50.024;8.172;2023-07-31T16:58:17;3.10;;;2.50;;
15814;SDS011;8008;50.024;8.172;2023-07-31T17:00:45;4.50;;;2.30;;
15814;SDS011;8008;50.024;8.172;2023-07-31T17:03:14;4.07;;;2.30;;
15814;SDS011;8008;50.024;8.172;2023-07-31T17:05:42;3.80;;;2.70;;
15814;SDS011;8008;50.024;8.172;2023-07-31T17:08:10;3.75;;;2.55;;
15814;SDS011;8008;50.024;8.172;2023-07-31T17:10:40;3.22;;;2.40;;
15814;SDS011;8008;50.024;8.172;2023-07-31T17:13:08;3.95;;;2.60;;
15814;SDS011;8008;50.024;8.172;2023-07-31T17:15:36;5.90;;;2.70;;
15814;SDS011;8008;50.024;8.172;2023-07-31T17:18:04;4.32;;;2.30;;
15814;SDS011;8008;50.024;8.172;2023-07-31T17:20:33;4.82;;;2.80;;
15814;SDS011;8008;50.024;8.172;2023-07-31T17:23:02;3.25;;;2.50;;
15814;SDS011;8008;50.024;8.172;2023-07-31T17:25:30;4.32;;;2.53;;
15814;SDS011;8008;50.024;8.172;2023-07-31T17:27:58;4.43;;;2.70;;
15814;SDS011;8008;50.024;8.172;2023-07-31T17:30:26;4.07;;;2.63;;
15814;SDS011;8008;50.024;8.172;2023-07-31T17:32:54;4.45;;;2.10;;
15814;SDS011;8008;50.024;8.172;2023-07-31T17:35:22;5.97;;;2.38;;
15814;SDS011;8008;50.024;8.172;2023-07-31T17:37:51;3.67;;;2.33;;
15814;SDS011;8008;50.024;8.172;2023-07-31T17:40:21;3.58;;;2.42;;
15814;SDS011;8008;50.024;8.172;2023-07-31T17:42:49;4.65;;;2.45;;
15814;SDS011;8008;50.024;8.172;2023-07-31T17:45:17;4.25;;;2.65;;
15814;SDS011;8008;50.024;8.172;2023-07-31T17:47:45;3.63;;;2.63;;
15814;SDS011;8008;50.024;8.172;2023-07-31T17:50:13;3.33;;;2.35;;
15814;SDS011;8008;50.024;8.172;2023-07-31T17:52:41;3.35;;;2.53;;
15814;SDS011;8008;50.024;8.172;2023-07-31T17:55:10;4.82;;;2.80;;
15814;SDS011;8008;50.024;8.172;2023-07-31T17:57:38;3.97;;;2.70;;
15814;SDS011;8008;50.024;8.172;2023-07-31T18:00:06;5.70;;;2.80;;
15814;SDS011;8008;50.024;8.172;2023-07-31T18:02:35;5.30;;;2.50;;
15814;SDS011;8008;50.024;8.172;2023-07-31T18:05:04;6.35;;;2.70;;
15814;SDS011;8008;50.024;8.172;2023-07-31T18:07:33;6.55;;;3.00;;
15814;SDS011;8008;50.024;8.172;2023-07-31T18:10:01;3.55;;;2.53;;